Time;durP1;ratioP1;P1;durP2;ratioP2;P2;SDS_P1;SDS_P2;PMS_P1;PMS_P2;Temp;Humidity;BMP_temperature;BMP_pressure;BME280_temperature;BME280_humidity;BME280_pressure;Samples;Min_cycle;Max_cycle;Signal;HPM_P1;HPM_P2
2021/05/10 00:01:19;;;;;;;1.33;1.23;;;20.20;50.50;;;;;;3543876;40;20049;-67
2021/05/10 00:03:45;;;;;;;2.22;1.52;;;20.10;50.30;;;;;;3546161;40;20030;-67
2021/05/10 00:06:11;;;;;;;1.88;1.20;;;20.10;50.30;;;;;;3548324;40;20046;-67
2021/05/10 00:08:37;;;;;;;5.70;1.40;;;20.10;50.20;;;;;;3549195;40;20029;-66
2021/05/10 00:11:03;;;;;;;2.28;1.40;;;20.00;50.20;;;;;;3544800;40;20907;-67
2021/05/10 00:13:28;;;;;;;2.22;1.20;;;20.00;50.60;;;;;;3543985;40;20059;-66
2021/05/10 00:15:54;;;;;;;3.00;1.60;;;19.90;50.60;;;;;;3546476;40;20084;-67
2021/05/10 00:18:21;;;;;;;3.15;1.50;;;19.90;50.80;;;;;;3547681;40;20683;-67
2021/05/10 00:20:48;;;;;;;1.98;1.38;;;19.80;50.50;;;;;;3551404;40;20045;-67
2021/05/10 00:23:15;;;;;;;1.52;1.30;;;19.80;50.40;;;;;;3549893;40;20081;-67
2021/05/10 00:25:42;;;;;;;4.03;1.35;;;19.80;50.70;;;;;;3548703;40;20070;-67
2021/05/10 00:28:08;;;;;;;3.20;1.27;;;19.80;50.20;;;;;;3546719;40;20037;-67
2021/05/10 00:30:34;;;;;;;4.75;1.20;;;19.80;50.60;;;;;;3543174;40;20050;-67
2021/05/10 00:33:00;;;;;;;1.83;1.48;;;19.80;50.40;;;;;;3542755;40;20034;-67
2021/05/10 00:35:26;;;;;;;3.80;1.40;;;19.70;50.70;;;;;;3551183;40;20288;-66
2021/05/10 00:37:53;;;;;;;1.20;1.10;;;19.60;50.60;;;;;;3548303;40;20124;-67
2021/05/10 00:40:21;;;;;;;2.75;1.33;;;19.60;50.60;;;;;;3546779;40;20054;-67
2021/05/10 00:42:47;;;;;;;1.90;1.17;;;19.60;51.20;;;;;;3544134;40;20042;-66
2021/05/10 00:45:13;;;;;;;1.95;1.08;;;19.50;51.20;;;;;;3542778;40;20398;-66
2021/05/10 00:47:40;;;;;;;6.35;1.45;;;19.50;51.30;;;;;;3542775;40;20074;-67
2021/05/10 00:50:08;;;;;;;1.38;1.13;;;19.50;51.20;;;;;;3545224;40;20027;-67
2021/05/10 00:52:34;;;;;;;1.52;1.35;;;19.40;51.50;;;;;;3546949;40;20022;-67
2021/05/10 00:55:00;;;;;;;2.80;1.38;;;19.40;51.80;;;;;;3548935;40;20025;-67
2021/05/10 00:57:31;;;;;;;1.45;1.10;;;19.30;51.70;;;;;;3545737;40;20034;-67
2021/05/10 00:59:57;;;;;;;1.90;1.30;;;19.30;52.10;;;;;;3542075;40;20026;-67
2021/05/10 01:02:23;;;;;;;2.45;1.33;;;19.20;52.80;;;;;;3544847;40;20817;-67
2021/05/10 01:04:49;;;;;;;2.17;1.30;;;19.00;53.30;;;;;;3546444;40;20512;-67
2021/05/10 01:07:15;;;;;;;1.92;1.42;;;18.90;53.50;;;;;;3547575;40;20038;-67
2021/05/10 01:09:40;;;;;;;1.33;1.13;;;18.90;53.60;;;;;;3549258;40;20049;-67
2021/05/10 01:12:07;;;;;;;3.90;1.67;;;18.90;54.00;;;;;;3549558;40;20038;-66
2021/05/10 01:14:34;;;;;;;1.73;1.38;;;18.70;53.80;;;;;;3547662;40;20038;-67
2021/05/10 01:17:01;;;;;;;1.50;1.02;;;18.70;54.00;;;;;;3546021;40;20531;-67
2021/05/10 01:19:28;;;;;;;2.10;1.55;;;18.60;54.10;;;;;;3545858;40;20018;-67
2021/05/10 01:21:58;;;;;;;2.75;1.48;;;18.50;54.30;;;;;;3548382;40;20720;-67
2021/05/10 01:24:25;;;;;;;1.52;1.30;;;18.50;54.70;;;;;;3550380;40;20134;-68
2021/05/10 01:26:51;;;;;;;1.17;1.08;;;18.40;54.90;;;;;;3546922;40;20041;-67
2021/05/10 01:29:18;;;;;;;1.92;1.50;;;18.30;55.10;;;;;;3544761;40;20038;-67
2021/05/10 01:31:44;;;;;;;2.65;1.30;;;18.20;55.00;;;;;;3547391;40;20507;-67
2021/05/10 01:34:10;;;;;;;1.30;1.10;;;18.10;56.20;;;;;;3542306;40;20043;-67
2021/05/10 01:36:36;;;;;;;2.08;1.27;;;18.10;56.50;;;;;;3541930;40;20030;-67
2021/05/10 01:39:02;;;;;;;2.55;1.40;;;18.00;56.40;;;;;;3543098;40;20026;-67
2021/05/10 01:41:27;;;;;;;3.60;1.30;;;17.90;56.30;;;;;;3545145;40;20061;-67
2021/05/10 01:43:53;;;;;;;2.72;1.10;;;17.80;56.60;;;;;;3547036;40;20022;-67
2021/05/10 01:46:19;;;;;;;3.42;1.45;;;17.70;56.80;;;;;;3549196;40;20339;-68
2021/05/10 01:48:44;;;;;;;1.70;1.10;;;17.70;57.00;;;;;;3549824;40;20026;-67
2021/05/10 01:51:10;;;;;;;2.72;1.35;;;17.70;57.00;;;;;;3548093;40;20029;-67
2021/05/10 01:53:36;;;;;;;1.60;1.20;;;17.60;57.30;;;;;;3546639;40;20030;-67
2021/05/10 01:56:02;;;;;;;1.98;1.30;;;17.60;57.30;;;;;;3545408;40;20144;-66
2021/05/10 01:58:28;;;;;;;2.70;1.48;;;17.50;57.50;;;;;;3542753;40;20120;-67
2021/05/10 02:00:54;;;;;;;1.38;1.27;;;17.40;57.50;;;;;;3541252;40;20041;-67
2021/05/10 02:03:21;;;;;;;1.40;1.30;;;17.40;57.60;;;;;;3542822;40;20621;-67
2021/05/10 02:05:49;;;;;;;3.08;1.30;;;17.30;57.40;;;;;;3544156;40;20038;-66
2021/05/10 02:08:16;;;;;;;5.45;1.27;;;17.30;57.20;;;;;;3545575;40;20111;-67
2021/05/10 02:10:49;;;;;;;2.75;1.42;;;17.30;57.70;;;;;;3543123;40;20042;-67
2021/05/10 02:13:21;;;;;;;1.35;1.20;;;17.20;57.40;;;;;;3540584;40;20065;-67
2021/05/10 02:15:56;;;;;;;2.45;1.35;;;17.20;57.50;;;;;;3542468;40;20078;-67
2021/05/10 02:18:25;;;;;;;2.83;1.37;;;17.20;57.60;;;;;;3544508;40;20049;-67
2021/05/10 02:20:51;;;;;;;4.60;1.38;;;17.20;57.20;;;;;;3545986;40;20042;-67
2021/05/10 02:23:28;;;;;;;1.48;1.23;;;17.20;57.40;;;;;;3548445;40;20046;-68
2021/05/10 02:25:56;;;;;;;3.90;1.50;;;17.20;57.70;;;;;;3549626;40;20038;-66
2021/05/10 02:28:26;;;;;;;2.20;1.17;;;17.10;58.60;;;;;;3544893;40;20143;-67
2021/05/10 02:30:53;;;;;;;1.27;1.02;;;17.10;57.60;;;;;;3545766;40;20036;-67
2021/05/10 02:33:21;;;;;;;2.13;1.35;;;17.10;57.60;;;;;;3545906;40;20339;-66
2021/05/10 02:35:48;;;;;;;2.33;1.40;;;17.10;57.70;;;;;;3549394;40;20408;-66
2021/05/10 02:38:15;;;;;;;1.63;1.23;;;17.00;57.30;;;;;;3546443;40;20039;-66
2021/05/10 02:40:42;;;;;;;3.30;1.40;;;17.10;57.10;;;;;;3545898;40;20031;-67
2021/05/10 02:43:07;;;;;;;4.70;1.45;;;17.10;57.30;;;;;;3547788;40;20525;-67
2021/05/10 02:45:34;;;;;;;2.08;1.00;;;17.10;58.10;;;;;;3548462;40;20050;-67
2021/05/10 02:47:59;;;;;;;2.03;1.50;;;17.00;58.20;;;;;;3547198;40;20035;-66
2021/05/10 02:50:26;;;;;;;2.20;1.40;;;17.00;58.10;;;;;;3542775;40;20030;-66
2021/05/10 02:52:53;;;;;;;3.42;1.20;;;16.90;57.20;;;;;;3544711;40;20040;-67
2021/05/10 02:55:19;;;;;;;6.05;1.27;;;16.90;57.60;;;;;;3545387;40;20167;-66
2021/05/10 02:57:47;;;;;;;2.55;1.20;;;16.90;57.60;;;;;;3546601;40;20053;-66
2021/05/10 03:00:15;;;;;;;1.58;1.20;;;16.90;57.30;;;;;;3547737;40;20668;-68
2021/05/10 03:02:41;;;;;;;1.23;1.13;;;16.90;57.80;;;;;;3540952;40;20038;-67
2021/05/10 03:05:09;;;;;;;1.85;1.20;;;16.80;57.90;;;;;;3543019;40;20068;-67
2021/05/10 03:07:35;;;;;;;3.08;1.63;;;16.70;58.30;;;;;;3548634;40;20046;-67
2021/05/10 03:10:03;;;;;;;1.40;1.30;;;16.70;57.80;;;;;;3546586;40;20051;-67
2021/05/10 03:12:29;;;;;;;1.55;1.00;;;16.70;58.80;;;;;;3545545;40;20034;-67
2021/05/10 03:14:54;;;;;;;4.53;1.30;;;16.70;58.40;;;;;;3542879;40;20124;-67
2021/05/10 03:17:20;;;;;;;1.63;1.30;;;16.60;59.40;;;;;;3549355;40;20033;-66
2021/05/10 03:19:46;;;;;;;3.42;1.40;;;16.60;60.30;;;;;;3545971;40;20054;-67
2021/05/10 03:22:12;;;;;;;2.03;1.40;;;16.50;58.90;;;;;;3547285;40;20109;-67
2021/05/10 03:24:37;;;;;;;1.48;1.10;;;16.50;60.30;;;;;;3546043;40;20038;-67
2021/05/10 03:27:03;;;;;;;3.22;1.15;;;16.40;61.00;;;;;;3544157;40;20053;-67
2021/05/10 03:29:29;;;;;;;2.42;1.20;;;16.40;61.20;;;;;;3542031;40;20767;-67
2021/05/10 03:31:54;;;;;;;2.20;1.40;;;16.30;61.40;;;;;;3546356;40;20042;-67
2021/05/10 03:34:20;;;;;;;1.30;1.17;;;16.30;61.00;;;;;;3546608;40;20199;-67
2021/05/10 03:36:46;;;;;;;3.35;1.27;;;16.20;61.00;;;;;;3544386;40;20052;-67
2021/05/10 03:39:12;;;;;;;4.57;1.50;;;16.20;59.80;;;;;;3548416;40;20126;-67
2021/05/10 03:41:37;;;;;;;2.53;1.75;;;16.20;60.00;;;;;;3549732;40;20045;-67
2021/05/10 03:44:03;;;;;;;1.58;1.45;;;16.20;61.20;;;;;;3543559;40;20030;-67
2021/05/10 03:46:29;;;;;;;2.72;1.52;;;16.20;60.10;;;;;;3547494;40;20029;-67
2021/05/10 03:48:55;;;;;;;2.50;1.55;;;16.20;60.70;;;;;;3547056;40;20038;-67
2021/05/10 03:51:20;;;;;;;4.55;1.30;;;16.20;61.50;;;;;;3542044;40;20041;-66
2021/05/10 03:53:46;;;;;;;1.73;1.42;;;16.20;60.20;;;;;;3547273;40;20056;-67
2021/05/10 03:56:12;;;;;;;1.77;1.20;;;16.20;61.10;;;;;;3548284;40;20033;-67
2021/05/10 03:58:39;;;;;;;2.88;1.40;;;16.20;60.00;;;;;;3546174;40;20434;-66
2021/05/10 04:01:05;;;;;;;2.05;1.38;;;16.20;59.80;;;;;;3548370;40;20057;-67
2021/05/10 04:03:37;;;;;;;1.85;1.30;;;16.10;60.60;;;;;;3551620;40;20759;-67
2021/05/10 04:06:29;;;;;;;3.42;1.58;;;16.10;59.40;;;;;;3546557;40;20086;-67
2021/05/10 04:14:25;;;;;;;5.18;1.48;;;16.20;59.90;;;;;;3546311;40;20054;-67
2021/05/10 04:16:51;;;;;;;1.45;1.30;;;16.20;59.60;;;;;;3543694;40;20049;-67
2021/05/10 04:19:17;;;;;;;2.38;1.38;;;16.20;59.90;;;;;;3546736;40;20034;-67
2021/05/10 04:21:43;;;;;;;4.82;1.48;;;16.20;59.70;;;;;;3546516;40;20038;-67
2021/05/10 04:24:09;;;;;;;2.08;1.30;;;16.20;59.00;;;;;;3546093;40;20066;-67
2021/05/10 04:26:35;;;;;;;1.02;0.93;;;16.30;59.70;;;;;;3548713;40;20026;-66
2021/05/10 04:29:01;;;;;;;2.50;1.13;;;16.30;58.90;;;;;;3546482;40;20025;-66
2021/05/10 04:31:26;;;;;;;1.52;1.40;;;16.30;59.10;;;;;;3545233;40;20119;-66
2021/05/10 04:33:52;;;;;;;2.42;1.45;;;16.30;58.90;;;;;;3545053;40;20650;-67
2021/05/10 04:36:18;;;;;;;1.92;1.40;;;16.40;58.30;;;;;;3547059;40;20037;-67
2021/05/10 04:38:44;;;;;;;2.05;1.17;;;16.50;58.40;;;;;;3549851;40;20026;-67
2021/05/10 04:41:10;;;;;;;2.22;1.25;;;16.60;58.30;;;;;;3547536;40;20030;-67
2021/05/10 04:43:36;;;;;;;1.58;1.48;;;16.60;57.90;;;;;;3550828;40;20057;-67
2021/05/10 04:46:02;;;;;;;1.80;1.40;;;16.70;57.10;;;;;;3550628;40;20055;-67
2021/05/10 04:48:28;;;;;;;3.35;1.38;;;16.80;56.30;;;;;;3550631;40;20108;-67
2021/05/10 04:50:54;;;;;;;1.40;1.30;;;16.90;56.60;;;;;;3548572;40;20026;-67
2021/05/10 04:53:20;;;;;;;2.60;1.38;;;17.00;56.00;;;;;;3550080;40;20049;-67
2021/05/10 04:55:46;;;;;;;2.50;1.58;;;17.00;55.70;;;;;;3550928;40;20127;-67
2021/05/10 04:58:11;;;;;;;3.55;1.38;;;17.20;55.70;;;;;;3545320;40;20030;-67
2021/05/10 05:00:37;;;;;;;2.50;1.30;;;17.30;55.20;;;;;;3548384;40;20327;-66
2021/05/10 05:03:03;;;;;;;5.28;1.50;;;17.50;54.20;;;;;;3547244;40;20027;-66
2021/05/10 05:05:28;;;;;;;4.55;1.60;;;17.60;53.90;;;;;;3548495;40;20029;-67
2021/05/10 05:07:54;;;;;;;2.60;1.50;;;17.80;53.90;;;;;;3548006;40;20030;-67
2021/05/10 05:10:21;;;;;;;3.40;1.20;;;17.90;53.10;;;;;;3545505;40;20049;-67
2021/05/10 05:12:50;;;;;;;2.15;1.30;;;18.20;52.70;;;;;;3549240;40;20046;-66
2021/05/10 05:15:17;;;;;;;2.00;1.30;;;18.60;51.30;;;;;;3548567;40;20034;-65
2021/05/10 05:17:43;;;;;;;3.25;1.48;;;19.20;50.20;;;;;;3547516;40;20518;-67
2021/05/10 05:20:10;;;;;;;4.07;1.45;;;19.50;49.30;;;;;;3550082;40;20100;-67
2021/05/10 05:22:36;;;;;;;4.07;1.25;;;20.10;48.50;;;;;;3549105;40;20802;-66
2021/05/10 05:25:03;;;;;;;3.20;1.27;;;20.50;46.50;;;;;;3547374;40;20432;-68
2021/05/10 05:27:29;;;;;;;1.83;1.10;;;20.90;46.50;;;;;;3547269;40;20045;-66
2021/05/10 05:29:55;;;;;;;2.15;1.23;;;21.20;45.30;;;;;;3548353;40;20022;-66
2021/05/10 05:32:22;;;;;;;1.77;1.17;;;21.40;45.90;;;;;;3546181;40;20109;-68
2021/05/10 05:34:49;;;;;;;2.50;1.20;;;21.40;45.40;;;;;;3550833;40;20033;-67
2021/05/10 05:37:14;;;;;;;4.47;1.40;;;21.40;44.30;;;;;;3548234;40;20026;-67
2021/05/10 05:39:40;;;;;;;3.30;1.30;;;21.50;44.90;;;;;;3548315;40;20085;-67
2021/05/10 05:42:06;;;;;;;5.75;1.20;;;22.00;44.80;;;;;;3537252;40;20038;-67
2021/05/10 05:44:37;;;;;;;4.15;2.00;;;22.60;42.80;;;;;;3545079;40;20462;-67
2021/05/10 05:47:04;;;;;;;5.45;1.20;;;22.80;42.60;;;;;;3543946;40;20386;-67
2021/05/10 05:49:36;;;;;;;1.98;1.13;;;22.90;41.40;;;;;;3548912;40;20078;-67
2021/05/10 05:52:05;;;;;;;3.63;1.38;;;23.00;40.80;;;;;;3547895;40;20032;-67
2021/05/10 05:54:32;;;;;;;12.82;7.82;;;22.90;41.40;;;;;;3549528;40;20419;-67
2021/05/10 05:56:58;;;;;;;1.30;1.20;;;23.10;41.80;;;;;;3548835;40;20062;-67
2021/05/10 05:59:24;;;;;;;5.25;1.00;;;23.40;41.20;;;;;;3547475;40;20026;-67
2021/05/10 06:01:50;;;;;;;2.42;1.40;;;23.70;40.00;;;;;;3548574;40;20033;-66
2021/05/10 06:04:16;;;;;;;2.05;1.27;;;23.80;39.40;;;;;;3547654;40;20063;-68
2021/05/10 06:06:41;;;;;;;3.10;1.65;;;24.10;39.70;;;;;;3547728;40;20041;-67
2021/05/10 06:09:09;;;;;;;1.73;0.90;;;24.40;39.30;;;;;;3549219;40;20706;-67
2021/05/10 06:11:35;;;;;;;2.60;1.40;;;24.60;38.50;;;;;;3546679;40;20030;-67
2021/05/10 06:14:01;;;;;;;1.20;1.10;;;24.90;38.90;;;;;;3544494;40;20513;-67
2021/05/10 06:16:28;;;;;;;1.48;1.27;;;25.00;38.50;;;;;;3549033;40;20124;-67
2021/05/10 06:18:53;;;;;;;1.90;1.00;;;25.00;38.50;;;;;;3545386;40;20057;-67
2021/05/10 06:21:19;;;;;;;4.18;1.23;;;25.10;38.10;;;;;;3547518;40;20427;-66
2021/05/10 06:23:45;;;;;;;3.00;1.13;;;25.10;37.80;;;;;;3543558;40;20158;-66
2021/05/10 06:26:11;;;;;;;1.95;1.73;;;24.80;38.80;;;;;;3548161;40;20059;-66
2021/05/10 06:28:36;;;;;;;3.03;1.00;;;24.60;38.20;;;;;;3546891;40;20433;-67
2021/05/10 06:31:02;;;;;;;1.85;1.10;;;24.60;39.10;;;;;;3547295;40;20022;-67
2021/05/10 06:33:28;;;;;;;2.33;1.35;;;24.70;38.60;;;;;;3547990;40;20033;-66
2021/05/10 06:35:54;;;;;;;1.38;1.10;;;25.10;38.00;;;;;;3546591;40;20030;-67
2021/05/10 06:38:20;;;;;;;1.52;1.05;;;25.50;37.70;;;;;;3543334;40;20043;-67
2021/05/10 06:40:46;;;;;;;2.08;1.13;;;25.90;37.70;;;;;;3548010;40;20058;-67
2021/05/10 06:43:11;;;;;;;4.55;1.27;;;26.30;36.50;;;;;;3549182;40;20706;-67
2021/05/10 06:45:37;;;;;;;3.10;1.27;;;26.80;37.20;;;;;;3545818;40;20337;-67
2021/05/10 06:48:03;;;;;;;5.25;1.20;;;27.00;35.30;;;;;;3542997;40;20788;-67
2021/05/10 06:50:29;;;;;;;1.73;1.35;;;27.00;35.30;;;;;;3544670;40;20452;-67
2021/05/10 06:52:54;;;;;;;2.65;1.30;;;26.80;35.40;;;;;;3549492;40;20034;-67
2021/05/10 06:55:20;;;;;;;2.05;1.42;;;26.40;36.00;;;;;;3548644;40;20042;-67
2021/05/10 06:57:46;;;;;;;2.63;1.95;;;26.10;36.80;;;;;;3546590;40;20034;-67
2021/05/10 07:00:12;;;;;;;4.85;1.30;;;25.80;37.00;;;;;;3547883;40;20045;-68
2021/05/10 07:02:38;;;;;;;5.88;1.80;;;25.80;37.60;;;;;;3548281;40;20402;-68
2021/05/10 07:05:05;;;;;;;1.55;1.30;;;25.80;38.30;;;;;;3546614;40;20031;-66
2021/05/10 07:07:32;;;;;;;2.22;1.33;;;25.90;38.00;;;;;;3548388;40;20064;-67
2021/05/10 07:09:58;;;;;;;3.72;1.65;;;25.90;37.60;;;;;;3548534;40;20048;-67
2021/05/10 07:12:24;;;;;;;5.18;1.50;;;25.80;37.50;;;;;;3553269;40;20554;-67
2021/05/10 07:14:49;;;;;;;3.28;1.70;;;25.80;37.30;;;;;;3550994;40;20073;-67
2021/05/10 07:17:15;;;;;;;2.58;1.00;;;25.90;38.00;;;;;;3546702;40;20046;-67
2021/05/10 07:19:41;;;;;;;2.28;1.13;;;26.20;36.50;;;;;;3548378;40;20570;-68
2021/05/10 07:22:07;;;;;;;2.30;1.20;;;26.50;37.30;;;;;;3545505;40;20732;-68
2021/05/10 07:24:33;;;;;;;2.53;1.10;;;26.40;36.00;;;;;;3545432;40;20034;-68
2021/05/10 07:26:59;;;;;;;3.20;1.15;;;26.00;36.90;;;;;;3546499;40;20908;-68
2021/05/10 07:29:25;;;;;;;2.40;1.30;;;25.70;38.40;;;;;;3544404;40;20053;-68
2021/05/10 07:31:50;;;;;;;3.17;1.38;;;25.60;36.90;;;;;;3547404;40;20487;-68
2021/05/10 07:34:16;;;;;;;2.60;0.93;;;25.60;38.10;;;;;;3546551;40;20042;-68
2021/05/10 07:36:42;;;;;;;4.53;1.20;;;25.70;37.00;;;;;;3546652;40;20039;-67
2021/05/10 07:39:08;;;;;;;3.60;1.10;;;25.90;36.60;;;;;;3544145;40;20041;-68
2021/05/10 07:41:34;;;;;;;1.15;1.00;;;26.00;37.00;;;;;;3543315;40;20478;-67
2021/05/10 07:44:01;;;;;;;2.97;1.10;;;26.00;37.50;;;;;;3546968;40;20805;-68
2021/05/10 07:46:26;;;;;;;4.40;1.30;;;26.00;37.10;;;;;;3545927;40;20034;-68
2021/05/10 07:48:52;;;;;;;1.23;1.00;;;26.00;37.80;;;;;;3550301;40;20661;-69
2021/05/10 07:51:18;;;;;;;1.30;1.20;;;26.20;36.80;;;;;;3550458;40;20049;-68
2021/05/10 07:53:44;;;;;;;2.90;1.10;;;26.30;37.80;;;;;;3545413;40;20412;-68
2021/05/10 07:56:09;;;;;;;1.73;1.25;;;26.50;37.10;;;;;;3547165;40;20123;-69
2021/05/10 07:58:41;;;;;;;1.73;0.93;;;26.60;37.50;;;;;;3546336;40;20507;-68
2021/05/10 08:01:07;;;;;;;3.83;1.08;;;26.60;36.90;;;;;;3549175;40;20076;-69
2021/05/10 08:03:32;;;;;;;4.85;1.30;;;26.60;36.50;;;;;;3544862;40;20446;-69
2021/05/10 08:06:01;;;;;;;2.33;1.02;;;26.70;37.70;;;;;;3545929;40;20038;-69
2021/05/10 08:08:27;;;;;;;4.95;1.13;;;26.80;37.70;;;;;;3546408;40;20045;-69
2021/05/10 08:10:53;;;;;;;4.05;1.10;;;27.00;37.60;;;;;;3545969;40;20082;-68
2021/05/10 08:13:19;;;;;;;2.38;1.30;;;27.20;37.80;;;;;;3546176;40;20407;-69
2021/05/10 08:15:45;;;;;;;4.13;1.25;;;27.30;38.10;;;;;;3540881;40;20034;-69
2021/05/10 08:18:11;;;;;;;2.88;1.10;;;27.20;37.80;;;;;;3547329;40;20471;-68
2021/05/10 08:20:42;;;;;;;2.50;1.35;;;27.10;36.50;;;;;;3548345;40;20030;-67
2021/05/10 08:23:09;;;;;;;2.05;1.67;;;27.00;36.60;;;;;;3545307;40;20038;-67
2021/05/10 08:25:35;;;;;;;4.05;1.45;;;27.00;36.80;;;;;;3542429;40;20447;-67
2021/05/10 08:28:01;;;;;;;2.60;1.60;;;26.90;36.60;;;;;;3547647;40;20037;-67
2021/05/10 08:30:27;;;;;;;2.88;1.45;;;26.80;36.80;;;;;;3545367;40;20030;-68
2021/05/10 08:32:57;;;;;;;2.45;1.45;;;27.10;37.30;;;;;;3547605;40;20030;-68
2021/05/10 08:35:22;;;;;;;3.53;1.38;;;27.30;36.60;;;;;;3545885;40;20056;-67
2021/05/10 08:37:48;;;;;;;2.85;1.40;;;27.40;36.00;;;;;;3545948;40;20455;-67
2021/05/10 08:40:14;;;;;;;2.28;1.13;;;27.60;36.30;;;;;;3546804;40;20022;-67
2021/05/10 08:42:43;;;;;;;2.95;1.40;;;27.90;36.50;;;;;;3542664;40;20058;-68
2021/05/10 08:45:09;;;;;;;4.07;1.30;;;27.90;35.70;;;;;;3544612;40;20900;-67
2021/05/10 08:47:36;;;;;;;1.70;1.20;;;27.70;36.10;;;;;;3548284;40;20589;-67
2021/05/10 08:50:05;;;;;;;4.88;1.38;;;27.90;36.20;;;;;;3548041;40;20034;-68
2021/05/10 08:52:34;;;;;;;2.15;1.15;;;28.10;36.10;;;;;;3544951;40;20128;-67
2021/05/10 08:55:00;;;;;;;3.33;1.40;;;28.40;35.50;;;;;;3546569;40;20077;-66
2021/05/10 08:57:26;;;;;;;2.85;1.40;;;28.40;36.00;;;;;;3543401;40;20014;-67
2021/05/10 08:59:52;;;;;;;1.25;1.02;;;28.40;36.40;;;;;;3545510;40;20077;-68
2021/05/10 09:02:32;;;;;;;6.50;1.40;;;28.30;36.50;;;;;;3547972;40;20026;-68
2021/05/10 09:05:18;;;;;;;2.22;1.52;;;28.30;37.60;;;;;;3549178;40;20066;-67
2021/05/10 09:08:04;;;;;;;1.80;1.13;;;28.20;36.20;;;;;;3548996;40;20045;-67
2021/05/10 09:10:29;;;;;;;2.20;1.00;;;28.10;36.80;;;;;;3543848;40;20132;-68
2021/05/10 09:12:56;;;;;;;2.78;1.20;;;28.10;38.00;;;;;;3545670;40;20056;-68
2021/05/10 09:15:28;;;;;;;2.38;1.20;;;28.10;37.30;;;;;;3547606;40;20030;-66
2021/05/10 09:18:01;;;;;;;2.78;1.35;;;27.80;35.30;;;;;;3547694;40;20116;-67
2021/05/10 09:20:29;;;;;;;3.40;1.52;;;27.70;36.80;;;;;;3541619;40;20048;-67
2021/05/10 09:23:01;;;;;;;3.53;1.50;;;27.70;36.70;;;;;;3544697;40;20630;-67
2021/05/10 09:25:32;;;;;;;1.67;1.35;;;27.60;37.00;;;;;;3545948;40;20061;-67
2021/05/10 09:28:17;;;;;;;1.50;1.13;;;27.60;37.20;;;;;;3546794;40;20034;-67
2021/05/10 09:30:48;;;;;;;1.98;1.30;;;27.60;37.30;;;;;;3542039;40;20046;-67
2021/05/10 09:33:23;;;;;;;2.95;1.23;;;27.70;37.50;;;;;;3543857;40;20042;-67
2021/05/10 09:35:50;;;;;;;3.03;1.50;;;27.90;37.00;;;;;;3544166;40;20078;-67
2021/05/10 09:38:19;;;;;;;1.98;1.50;;;27.90;37.40;;;;;;3545847;40;20038;-67
2021/05/10 09:41:02;;;;;;;1.90;1.15;;;28.00;37.90;;;;;;3547793;40;20038;-67
2021/05/10 09:43:32;;;;;;;1.63;1.30;;;28.20;37.60;;;;;;3548582;40;20065;-68
2021/05/10 09:46:03;;;;;;;3.15;1.83;;;28.40;37.70;;;;;;3549763;40;20438;-67
2021/05/10 09:48:35;;;;;;;1.50;1.30;;;28.50;37.00;;;;;;3544102;40;20031;-67
2021/05/10 09:51:10;;;;;;;2.15;1.40;;;28.60;37.60;;;;;;3548284;40;20025;-67
2021/05/10 09:53:49;;;;;;;5.43;1.67;;;28.70;35.90;;;;;;3544690;40;20042;-67
2021/05/10 09:56:24;;;;;;;1.77;1.10;;;28.70;35.90;;;;;;3543453;40;20042;-68
2021/05/10 09:58:50;;;;;;;2.42;1.23;;;28.40;35.70;;;;;;3546974;40;20034;-68
2021/05/10 10:01:16;;;;;;;2.40;1.25;;;28.40;36.80;;;;;;3545910;40;20063;-68
2021/05/10 10:03:43;;;;;;;1.95;1.10;;;28.70;35.70;;;;;;3546506;40;20616;-67
2021/05/10 10:06:14;;;;;;;2.95;1.27;;;28.90;35.40;;;;;;3547276;40;20056;-67
2021/05/10 10:08:48;;;;;;;1.90;1.30;;;29.20;35.30;;;;;;3548859;40;20170;-68
2021/05/10 10:11:17;;;;;;;2.78;1.20;;;29.30;34.90;;;;;;3549608;40;20026;-68
2021/05/10 10:13:44;;;;;;;1.95;1.23;;;29.30;36.10;;;;;;3547941;40;20029;-67
2021/05/10 10:16:10;;;;;;;2.63;1.30;;;29.20;35.60;;;;;;3545404;40;20026;-68
2021/05/10 10:18:40;;;;;;;2.58;1.30;;;29.30;35.20;;;;;;3543247;40;20706;-67
2021/05/10 10:21:09;;;;;;;3.65;1.20;;;29.30;35.10;;;;;;3543244;40;20023;-67
2021/05/10 10:23:37;;;;;;;2.60;1.40;;;29.20;34.10;;;;;;3543641;40;20815;-67
2021/05/10 10:26:06;;;;;;;3.17;1.25;;;29.30;34.80;;;;;;3543392;40;20048;-67
2021/05/10 10:28:33;;;;;;;3.20;1.52;;;29.50;34.60;;;;;;3545246;40;20034;-73
2021/05/10 10:31:06;;;;;;;3.35;1.33;;;29.80;33.70;;;;;;3544409;40;20156;-74
2021/05/10 10:33:49;;;;;;;3.22;1.30;;;29.90;33.50;;;;;;3541572;40;20034;-75
2021/05/10 10:36:20;;;;;;;2.50;1.08;;;30.40;33.20;;;;;;3545046;40;20050;-75
2021/05/10 10:38:46;;;;;;;1.83;1.30;;;30.80;33.00;;;;;;3546665;40;20060;-75
2021/05/10 10:41:23;;;;;;;3.22;1.30;;;30.80;32.50;;;;;;3546116;40;20578;-75
2021/05/10 10:43:50;;;;;;;3.17;1.20;;;30.70;32.60;;;;;;3542920;40;20027;-75
2021/05/10 10:46:23;;;;;;;2.90;1.60;;;30.40;33.50;;;;;;3548373;40;20033;-75
2021/05/10 10:48:51;;;;;;;3.10;1.20;;;30.00;33.50;;;;;;3544551;40;20081;-75
2021/05/10 10:51:19;;;;;;;2.58;1.00;;;29.70;33.40;;;;;;3547166;40;20062;-73
2021/05/10 10:53:46;;;;;;;2.45;1.10;;;29.50;34.50;;;;;;3545299;40;20034;-72
2021/05/10 10:56:12;;;;;;;1.95;1.25;;;29.50;34.60;;;;;;3541631;40;20041;-73
2021/05/10 10:58:41;;;;;;;1.38;1.10;;;29.40;34.50;;;;;;3546855;40;20029;-71
2021/05/10 11:01:23;;;;;;;2.35;1.40;;;29.50;34.00;;;;;;3549366;40;20503;-72
2021/05/10 11:03:49;;;;;;;5.18;1.45;;;29.40;33.80;;;;;;3542172;40;20081;-73
2021/05/10 11:06:15;;;;;;;3.05;1.20;;;29.20;34.60;;;;;;3547178;40;20042;-73
2021/05/10 11:08:54;;;;;;;1.30;1.10;;;29.00;34.80;;;;;;3545865;40;20167;-73
2021/05/10 11:11:34;;;;;;;2.40;1.42;;;29.00;36.20;;;;;;3548218;40;20065;-71
2021/05/10 11:14:04;;;;;;;2.90;1.23;;;29.00;34.70;;;;;;3548071;40;20062;-73
2021/05/10 11:16:55;;;;;;;3.58;1.20;;;28.90;35.60;;;;;;3547263;40;20065;-73
2021/05/10 11:19:30;;;;;;;2.25;0.90;;;28.80;36.20;;;;;;3546583;40;20077;-73
2021/05/10 11:21:58;;;;;;;1.10;1.00;;;28.80;35.70;;;;;;3543477;40;20540;-73
2021/05/10 11:24:34;;;;;;;1.60;0.93;;;28.80;34.90;;;;;;3550352;40;20151;-73
2021/05/10 11:27:02;;;;;;;1.50;1.20;;;28.90;35.10;;;;;;3549083;40;20135;-73
2021/05/10 11:29:28;;;;;;;4.40;1.27;;;29.00;35.30;;;;;;3547418;40;20026;-73
2021/05/10 11:31:57;;;;;;;2.30;1.20;;;28.90;34.40;;;;;;3547460;40;20455;-73
2021/05/10 11:34:33;;;;;;;3.83;1.10;;;28.80;35.40;;;;;;3547103;40;20045;-73
2021/05/10 11:36:59;;;;;;;2.30;1.02;;;28.70;35.10;;;;;;3550515;40;20319;-73
2021/05/10 11:39:29;;;;;;;3.33;1.10;;;28.50;34.70;;;;;;3551174;40;20023;-74
2021/05/10 11:41:58;;;;;;;3.70;1.17;;;28.40;34.00;;;;;;3548346;40;20704;-74
2021/05/10 11:44:25;;;;;;;1.45;1.00;;;28.50;33.70;;;;;;3539913;40;20164;-74
2021/05/10 11:46:53;;;;;;;2.92;1.00;;;28.80;35.80;;;;;;3543315;40;20054;-74
2021/05/10 11:49:27;;;;;;;3.28;1.30;;;29.00;34.50;;;;;;3541314;40;20042;-72
2021/05/10 11:51:54;;;;;;;2.30;1.20;;;29.00;35.10;;;;;;3540415;40;20136;-73
2021/05/10 11:54:21;;;;;;;1.52;1.05;;;28.90;35.30;;;;;;3544127;40;20044;-72
2021/05/10 11:56:48;;;;;;;4.00;1.10;;;28.90;36.80;;;;;;3545962;40;20035;-72
2021/05/10 12:02:09;;;;;;;3.13;1.05;;;28.90;32.70;;;;;;3542944;40;20088;-73
2021/05/10 12:04:40;;;;;;;6.78;1.20;;;28.90;33.20;;;;;;3547565;40;20047;-72
2021/05/10 12:07:06;;;;;;;2.08;0.95;;;28.80;33.90;;;;;;3547660;40;20026;-73
2021/05/10 12:09:42;;;;;;;1.02;0.90;;;28.70;33.70;;;;;;3547203;40;20022;-73
2021/05/10 12:12:14;;;;;;;1.67;1.00;;;28.70;33.70;;;;;;3550652;40;20120;-73
2021/05/10 12:14:40;;;;;;;2.47;1.00;;;28.70;34.50;;;;;;3552241;40;20579;-72
2021/05/10 12:17:27;;;;;;;6.82;1.15;;;28.80;33.70;;;;;;3549012;40;20355;-72
2021/05/10 12:19:54;;;;;;;3.22;1.02;;;28.80;34.30;;;;;;3548757;40;20496;-72
2021/05/10 12:22:50;;;;;;;3.70;1.30;;;28.70;34.30;;;;;;3549256;40;20019;-71
2021/05/10 12:25:20;;;;;;;4.78;1.38;;;28.60;33.60;;;;;;3546489;40;20136;-72
2021/05/10 12:27:59;;;;;;;1.98;1.30;;;28.60;34.50;;;;;;3549633;40;20050;-72
2021/05/10 12:30:32;;;;;;;2.90;1.38;;;28.70;36.10;;;;;;3550693;40;20041;-72
2021/05/10 12:33:03;;;;;;;3.65;1.75;;;28.90;35.60;;;;;;3549474;40;20049;-71
2021/05/10 12:35:32;;;;;;;2.63;1.50;;;28.90;36.60;;;;;;3547128;40;20153;-71
2021/05/10 12:37:59;;;;;;;2.72;1.02;;;29.00;37.30;;;;;;3550079;40;20056;-71
2021/05/10 12:40:28;;;;;;;1.60;1.30;;;29.10;36.30;;;;;;3550029;40;20416;-71
2021/05/10 12:43:16;;;;;;;3.65;1.45;;;29.10;37.60;;;;;;3545011;40;20128;-72
2021/05/10 12:45:58;;;;;;;3.10;1.10;;;28.90;37.20;;;;;;3548092;40;20158;-72
2021/05/10 12:48:36;;;;;;;3.53;1.30;;;28.90;38.20;;;;;;3547090;40;20061;-71
2021/05/10 12:51:08;;;;;;;2.00;1.30;;;28.80;37.10;;;;;;3544037;40;20037;-72
2021/05/10 12:53:43;;;;;;;2.40;1.30;;;28.80;37.50;;;;;;3548162;40;20057;-72
2021/05/10 12:56:19;;;;;;;2.90;1.00;;;28.90;37.30;;;;;;3546689;40;20078;-72
2021/05/10 12:58:48;;;;;;;;;;;28.90;37.00;;;;;;3548560;40;20042;-71
2021/05/10 13:01:25;;;;;;;2.53;0.88;;;28.90;37.40;;;;;;3547869;40;19957;-72